sensor_id;sensor_type;location;lat;lon;timestamp;P1;durP1;ratioP1;P2;durP2;ratioP2
64907;SDS011;69061;52.236;5.188;2023-08-30T00:00:28;15.40;;;8.13;;
64907;SDS011;69061;52.236;5.188;2023-08-30T00:02:54;12.77;;;9.48;;
64907;SDS011;69061;52.236;5.188;2023-08-30T00:05:21;12.27;;;9.25;;
64907;SDS011;69061;52.236;5.188;2023-08-30T00:07:48;12.90;;;8.55;;
64907;SDS011;69061;52.236;5.188;2023-08-30T00:10:15;14.93;;;9.60;;
64907;SDS011;69061;52.236;5.188;2023-08-30T00:12:41;12.65;;;8.50;;
64907;SDS011;69061;52.236;5.188;2023-08-30T00:15:10;10.43;;;7.78;;
64907;SDS011;69061;52.236;5.188;2023-08-30T00:17:37;12.25;;;7.50;;
64907;SDS011;69061;52.236;5.188;2023-08-30T00:20:04;13.75;;;8.35;;
64907;SDS011;69061;52.236;5.188;2023-08-30T00:22:34;10.63;;;7.80;;
64907;SDS011;69061;52.236;5.188;2023-08-30T00:25:00;12.98;;;8.88;;
64907;SDS011;69061;52.236;5.188;2023-08-30T00:27:28;12.30;;;8.23;;
64907;SDS011;69061;52.236;5.188;2023-08-30T00:29:54;14.85;;;8.13;;
64907;SDS011;69061;52.236;5.188;2023-08-30T00:32:23;9.82;;;7.32;;
64907;SDS011;69061;52.236;5.188;2023-08-30T00:34:50;15.68;;;9.23;;
64907;SDS011;69061;52.236;5.188;2023-08-30T00:37:17;17.20;;;9.27;;
64907;SDS011;69061;52.236;5.188;2023-08-30T00:39:44;14.20;;;9.15;;
64907;SDS011;69061;52.236;5.188;2023-08-30T00:42:11;12.63;;;8.48;;
64907;SDS011;69061;52.236;5.188;2023-08-30T00:44:38;14.60;;;9.00;;
64907;SDS011;69061;52.236;5.188;2023-08-30T00:47:06;14.93;;;9.98;;
64907;SDS011;69061;52.236;5.188;2023-08-30T00:49:34;19.42;;;9.95;;
64907;SDS011;69061;52.236;5.188;2023-08-30T00:52:02;17.13;;;9.82;;
64907;SDS011;69061;52.236;5.188;2023-08-30T00:54:34;16.33;;;9.70;;
64907;SDS011;69061;52.236;5.188;2023-08-30T00:57:01;18.25;;;9.68;;
64907;SDS011;69061;52.236;5.188;2023-08-30T00:59:30;14.70;;;9.15;;
64907;SDS011;69061;52.236;5.188;2023-08-30T01:01:59;15.10;;;9.75;;
64907;SDS011;69061;52.236;5.188;2023-08-30T01:04:27;13.60;;;9.32;;
64907;SDS011;69061;52.236;5.188;2023-08-30T01:06:56;13.98;;;9.82;;
64907;SDS011;69061;52.236;5.188;2023-08-30T01:09:23;15.00;;;9.60;;
64907;SDS011;69061;52.236;5.188;2023-08-30T01:11:54;12.85;;;8.43;;
64907;SDS011;69061;52.236;5.188;2023-08-30T01:14:31;16.30;;;9.50;;
64907;SDS011;69061;52.236;5.188;2023-08-30T01:17:05;13.93;;;9.43;;
64907;SDS011;69061;52.236;5.188;2023-08-30T01:19:38;18.08;;;10.75;;
64907;SDS011;69061;52.236;5.188;2023-08-30T01:22:26;17.42;;;10.32;;
64907;SDS011;69061;52.236;5.188;2023-08-30T01:25:09;18.30;;;10.45;;
64907;SDS011;69061;52.236;5.188;2023-08-30T01:27:45;18.02;;;11.48;;
64907;SDS011;69061;52.236;5.188;2023-08-30T01:30:14;15.30;;;10.23;;
64907;SDS011;69061;52.236;5.188;2023-08-30T01:32:43;18.50;;;11.27;;
64907;SDS011;69061;52.236;5.188;2023-08-30T01:35:11;19.33;;;10.85;;
64907;SDS011;69061;52.236;5.188;2023-08-30T01:37:42;18.55;;;11.90;;
64907;SDS011;69061;52.236;5.188;2023-08-30T01:40:10;15.40;;;10.02;;
64907;SDS011;69061;52.236;5.188;2023-08-30T01:42:38;16.90;;;10.90;;
64907;SDS011;69061;52.236;5.188;2023-08-30T01:45:08;19.05;;;10.88;;
64907;SDS011;69061;52.236;5.188;2023-08-30T01:47:38;17.40;;;10.80;;
64907;SDS011;69061;52.236;5.188;2023-08-30T01:50:07;16.40;;;9.65;;
64907;SDS011;69061;52.236;5.188;2023-08-30T01:52:35;17.42;;;10.40;;
64907;SDS011;69061;52.236;5.188;2023-08-30T01:55:03;17.80;;;9.80;;
64907;SDS011;69061;52.236;5.188;2023-08-30T01:57:34;16.20;;;9.80;;
64907;SDS011;69061;52.236;5.188;2023-08-30T02:00:01;15.52;;;10.05;;
64907;SDS011;69061;52.236;5.188;2023-08-30T02:02:31;17.52;;;10.80;;
64907;SDS011;69061;52.236;5.188;2023-08-30T02:04:59;14.73;;;9.88;;
64907;SDS011;69061;52.236;5.188;2023-08-30T02:07:27;16.83;;;10.55;;
64907;SDS011;69061;52.236;5.188;2023-08-30T02:10:00;20.08;;;10.50;;
64907;SDS011;69061;52.236;5.188;2023-08-30T02:12:34;15.05;;;10.40;;
64907;SDS011;69061;52.236;5.188;2023-08-30T02:15:06;20.83;;;10.18;;
64907;SDS011;69061;52.236;5.188;2023-08-30T02:17:36;14.80;;;9.43;;
64907;SDS011;69061;52.236;5.188;2023-08-30T02:20:05;18.55;;;11.55;;
64907;SDS011;69061;52.236;5.188;2023-08-30T02:22:34;15.95;;;10.38;;
64907;SDS011;69061;52.236;5.188;2023-08-30T02:25:01;16.50;;;10.65;;
64907;SDS011;69061;52.236;5.188;2023-08-30T02:27:30;16.38;;;10.88;;
64907;SDS011;69061;52.236;5.188;2023-08-30T02:29:57;18.02;;;10.88;;
64907;SDS011;69061;52.236;5.188;2023-08-30T02:32:24;17.67;;;10.18;;
64907;SDS011;69061;52.236;5.188;2023-08-30T02:34:52;17.73;;;11.65;;
64907;SDS011;69061;52.236;5.188;2023-08-30T02:37:19;19.10;;;11.02;;
64907;SDS011;69061;52.236;5.188;2023-08-30T02:39:46;18.33;;;10.55;;
64907;SDS011;69061;52.236;5.188;2023-08-30T02:42:13;17.42;;;11.27;;
64907;SDS011;69061;52.236;5.188;2023-08-30T02:44:40;15.77;;;9.75;;
64907;SDS011;69061;52.236;5.188;2023-08-30T02:47:07;22.25;;;10.98;;
64907;SDS011;69061;52.236;5.188;2023-08-30T02:49:34;18.75;;;10.25;;
64907;SDS011;69061;52.236;5.188;2023-08-30T02:52:03;17.90;;;11.77;;
64907;SDS011;69061;52.236;5.188;2023-08-30T02:54:30;18.38;;;10.82;;
64907;SDS011;69061;52.236;5.188;2023-08-30T02:56:57;18.95;;;12.30;;
64907;SDS011;69061;52.236;5.188;2023-08-30T02:59:24;22.35;;;12.32;;
64907;SDS011;69061;52.236;5.188;2023-08-30T03:01:50;16.08;;;10.93;;
64907;SDS011;69061;52.236;5.188;2023-08-30T03:04:17;15.93;;;10.73;;
64907;SDS011;69061;52.236;5.188;2023-08-30T03:06:44;19.67;;;10.38;;
64907;SDS011;69061;52.236;5.188;2023-08-30T03:09:12;18.67;;;11.80;;
64907;SDS011;69061;52.236;5.188;2023-08-30T03:11:39;16.15;;;9.80;;
64907;SDS011;69061;52.236;5.188;2023-08-30T03:14:07;16.85;;;10.02;;
64907;SDS011;69061;52.236;5.188;2023-08-30T03:16:34;17.88;;;10.43;;
64907;SDS011;69061;52.236;5.188;2023-08-30T03:19:01;20.95;;;11.45;;
64907;SDS011;69061;52.236;5.188;2023-08-30T03:21:28;17.40;;;9.68;;
64907;SDS011;69061;52.236;5.188;2023-08-30T03:23:55;19.48;;;12.82;;
64907;SDS011;69061;52.236;5.188;2023-08-30T03:26:23;19.38;;;10.32;;
64907;SDS011;69061;52.236;5.188;2023-08-30T03:28:50;16.90;;;10.75;;
64907;SDS011;69061;52.236;5.188;2023-08-30T03:31:18;19.27;;;10.75;;
64907;SDS011;69061;52.236;5.188;2023-08-30T03:33:46;21.92;;;11.90;;
64907;SDS011;69061;52.236;5.188;2023-08-30T03:36:15;19.90;;;13.18;;
64907;SDS011;69061;52.236;5.188;2023-08-30T03:38:43;18.60;;;12.18;;
64907;SDS011;69061;52.236;5.188;2023-08-30T03:41:11;21.48;;;13.07;;
64907;SDS011;69061;52.236;5.188;2023-08-30T03:43:40;19.65;;;12.68;;
64907;SDS011;69061;52.236;5.188;2023-08-30T03:46:07;23.67;;;13.27;;
64907;SDS011;69061;52.236;5.188;2023-08-30T03:48:34;27.35;;;13.50;;
64907;SDS011;69061;52.236;5.188;2023-08-30T03:51:01;21.67;;;13.35;;
64907;SDS011;69061;52.236;5.188;2023-08-30T03:53:28;25.80;;;14.55;;
64907;SDS011;69061;52.236;5.188;2023-08-30T03:55:55;21.20;;;13.00;;
64907;SDS011;69061;52.236;5.188;2023-08-30T03:58:23;23.77;;;14.23;;
64907;SDS011;69061;52.236;5.188;2023-08-30T04:00:51;21.80;;;12.57;;
64907;SDS011;69061;52.236;5.188;2023-08-30T04:03:18;23.67;;;13.63;;
64907;SDS011;69061;52.236;5.188;2023-08-30T04:05:45;23.10;;;14.93;;
64907;SDS011;69061;52.236;5.188;2023-08-30T04:08:12;20.25;;;13.20;;
64907;SDS011;69061;52.236;5.188;2023-08-30T04:10:39;23.42;;;14.50;;
64907;SDS011;69061;52.236;5.188;2023-08-30T04:13:08;23.92;;;14.10;;
64907;SDS011;69061;52.236;5.188;2023-08-30T04:15:36;22.02;;;14.38;;
64907;SDS011;69061;52.236;5.188;2023-08-30T04:18:05;20.00;;;12.73;;
64907;SDS011;69061;52.236;5.188;2023-08-30T04:20:33;24.10;;;12.95;;
64907;SDS011;69061;52.236;5.188;2023-08-30T04:23:01;21.73;;;14.20;;
64907;SDS011;69061;52.236;5.188;2023-08-30T04:25:29;21.20;;;12.85;;
64907;SDS011;69061;52.236;5.188;2023-08-30T04:27:56;22.95;;;14.02;;
64907;SDS011;69061;52.236;5.188;2023-08-30T04:30:23;27.45;;;15.57;;
64907;SDS011;69061;52.236;5.188;2023-08-30T04:32:51;21.10;;;12.95;;
64907;SDS011;69061;52.236;5.188;2023-08-30T04:35:19;27.80;;;16.17;;
64907;SDS011;69061;52.236;5.188;2023-08-30T04:37:46;24.70;;;14.52;;
64907;SDS011;69061;52.236;5.188;2023-08-30T04:40:13;26.75;;;15.80;;
64907;SDS011;69061;52.236;5.188;2023-08-30T04:42:41;26.08;;;14.70;;
64907;SDS011;69061;52.236;5.188;2023-08-30T04:45:08;25.85;;;15.93;;
64907;SDS011;69061;52.236;5.188;2023-08-30T04:47:36;25.30;;;14.93;;
64907;SDS011;69061;52.236;5.188;2023-08-30T04:50:03;24.27;;;14.35;;
64907;SDS011;69061;52.236;5.188;2023-08-30T04:52:31;22.83;;;14.88;;
64907;SDS011;69061;52.236;5.188;2023-08-30T04:54:58;30.42;;;16.98;;
64907;SDS011;69061;52.236;5.188;2023-08-30T04:57:25;19.55;;;13.18;;
64907;SDS011;69061;52.236;5.188;2023-08-30T04:59:52;23.00;;;15.13;;
64907;SDS011;69061;52.236;5.188;2023-08-30T05:02:19;25.00;;;15.65;;
64907;SDS011;69061;52.236;5.188;2023-08-30T05:04:46;27.90;;;16.23;;
64907;SDS011;69061;52.236;5.188;2023-08-30T05:07:12;26.45;;;16.33;;
64907;SDS011;69061;52.236;5.188;2023-08-30T05:09:44;27.48;;;15.65;;
64907;SDS011;69061;52.236;5.188;2023-08-30T05:12:10;26.30;;;14.23;;
64907;SDS011;69061;52.236;5.188;2023-08-30T05:14:37;25.60;;;15.23;;
64907;SDS011;69061;52.236;5.188;2023-08-30T05:17:05;29.95;;;16.15;;
64907;SDS011;69061;52.236;5.188;2023-08-30T05:19:32;26.23;;;16.20;;
64907;SDS011;69061;52.236;5.188;2023-08-30T05:21:59;24.08;;;13.43;;
64907;SDS011;69061;52.236;5.188;2023-08-30T05:24:26;23.73;;;13.05;;
64907;SDS011;69061;52.236;5.188;2023-08-30T05:26:55;20.27;;;13.40;;
64907;SDS011;69061;52.236;5.188;2023-08-30T05:29:21;21.40;;;13.45;;
64907;SDS011;69061;52.236;5.188;2023-08-30T05:31:48;25.80;;;13.88;;
64907;SDS011;69061;52.236;5.188;2023-08-30T05:34:15;19.80;;;12.23;;
64907;SDS011;69061;52.236;5.188;2023-08-30T05:36:42;25.33;;;14.20;;
64907;SDS011;69061;52.236;5.188;2023-08-30T05:39:09;26.67;;;13.73;;
64907;SDS011;69061;52.236;5.188;2023-08-30T05:41:35;23.73;;;13.52;;
64907;SDS011;69061;52.236;5.188;2023-08-30T05:44:05;17.80;;;10.70;;
64907;SDS011;69061;52.236;5.188;2023-08-30T05:46:34;21.15;;;11.95;;
64907;SDS011;69061;52.236;5.188;2023-08-30T05:49:01;24.42;;;13.75;;
64907;SDS011;69061;52.236;5.188;2023-08-30T05:51:28;23.50;;;13.98;;
64907;SDS011;69061;52.236;5.188;2023-08-30T05:53:56;22.80;;;13.75;;
64907;SDS011;69061;52.236;5.188;2023-08-30T05:56:23;19.30;;;12.80;;
64907;SDS011;69061;52.236;5.188;2023-08-30T05:58:50;23.35;;;14.07;;
64907;SDS011;69061;52.236;5.188;2023-08-30T06:01:19;23.02;;;13.00;;
64907;SDS011;69061;52.236;5.188;2023-08-30T06:03:46;22.83;;;13.82;;
64907;SDS011;69061;52.236;5.188;2023-08-30T06:06:13;23.65;;;13.10;;
64907;SDS011;69061;52.236;5.188;2023-08-30T06:08:40;20.88;;;12.38;;
64907;SDS011;69061;52.236;5.188;2023-08-30T06:11:07;21.00;;;12.75;;
64907;SDS011;69061;52.236;5.188;2023-08-30T06:13:33;29.92;;;15.45;;
64907;SDS011;69061;52.236;5.188;2023-08-30T06:16:00;29.38;;;13.95;;
64907;SDS011;69061;52.236;5.188;2023-08-30T06:20:58;25.90;;;14.38;;
64907;SDS011;69061;52.236;5.188;2023-08-30T06:23:25;26.88;;;14.88;;
64907;SDS011;69061;52.236;5.188;2023-08-30T06:25:55;27.75;;;15.48;;
64907;SDS011;69061;52.236;5.188;2023-08-30T06:28:23;26.10;;;15.52;;
64907;SDS011;69061;52.236;5.188;2023-08-30T06:30:49;21.08;;;12.90;;
64907;SDS011;69061;52.236;5.188;2023-08-30T06:33:17;25.08;;;14.43;;
64907;SDS011;69061;52.236;5.188;2023-08-30T06:35:47;28.52;;;16.02;;
64907;SDS011;69061;52.236;5.188;2023-08-30T06:38:14;23.05;;;14.13;;
64907;SDS011;69061;52.236;5.188;2023-08-30T06:40:42;24.05;;;15.35;;
64907;SDS011;69061;52.236;5.188;2023-08-30T06:43:10;29.67;;;15.80;;
64907;SDS011;69061;52.236;5.188;2023-08-30T06:45:37;28.63;;;16.38;;
64907;SDS011;69061;52.236;5.188;2023-08-30T06:48:05;23.35;;;13.75;;
64907;SDS011;69061;52.236;5.188;2023-08-30T06:50:33;25.70;;;15.63;;
64907;SDS011;69061;52.236;5.188;2023-08-30T06:53:01;25.60;;;15.32;;
64907;SDS011;69061;52.236;5.188;2023-08-30T06:55:28;26.65;;;15.38;;
64907;SDS011;69061;52.236;5.188;2023-08-30T06:57:55;28.85;;;16.80;;
64907;SDS011;69061;52.236;5.188;2023-08-30T07:00:22;28.55;;;16.02;;
64907;SDS011;69061;52.236;5.188;2023-08-30T07:02:48;27.13;;;16.35;;
64907;SDS011;69061;52.236;5.188;2023-08-30T07:05:15;32.50;;;16.58;;
64907;SDS011;69061;52.236;5.188;2023-08-30T07:07:42;28.02;;;15.18;;
64907;SDS011;69061;52.236;5.188;2023-08-30T07:10:11;23.77;;;15.48;;
64907;SDS011;69061;52.236;5.188;2023-08-30T07:12:38;23.70;;;15.18;;
64907;SDS011;69061;52.236;5.188;2023-08-30T07:15:05;24.80;;;13.95;;
64907;SDS011;69061;52.236;5.188;2023-08-30T07:17:32;23.35;;;14.85;;
64907;SDS011;69061;52.236;5.188;2023-08-30T07:19:59;24.13;;;14.63;;
64907;SDS011;69061;52.236;5.188;2023-08-30T07:22:26;26.95;;;16.38;;
64907;SDS011;69061;52.236;5.188;2023-08-30T07:24:54;27.30;;;15.80;;
64907;SDS011;69061;52.236;5.188;2023-08-30T07:27:24;24.90;;;14.55;;
64907;SDS011;69061;52.236;5.188;2023-08-30T07:29:53;21.73;;;14.23;;
64907;SDS011;69061;52.236;5.188;2023-08-30T07:32:20;25.00;;;14.88;;
64907;SDS011;69061;52.236;5.188;2023-08-30T07:34:47;23.30;;;14.38;;
64907;SDS011;69061;52.236;5.188;2023-08-30T07:37:18;23.60;;;13.70;;
64907;SDS011;69061;52.236;5.188;2023-08-30T07:39:45;21.17;;;13.70;;
64907;SDS011;69061;52.236;5.188;2023-08-30T07:42:12;22.55;;;13.68;;
64907;SDS011;69061;52.236;5.188;2023-08-30T07:44:41;26.67;;;14.07;;
64907;SDS011;69061;52.236;5.188;2023-08-30T07:47:08;20.58;;;13.27;;
64907;SDS011;69061;52.236;5.188;2023-08-30T07:49:35;25.60;;;13.75;;
64907;SDS011;69061;52.236;5.188;2023-08-30T07:52:02;24.60;;;14.30;;
64907;SDS011;69061;52.236;5.188;2023-08-30T07:54:29;23.45;;;13.73;;
64907;SDS011;69061;52.236;5.188;2023-08-30T07:56:57;20.73;;;13.13;;
64907;SDS011;69061;52.236;5.188;2023-08-30T07:59:24;21.48;;;14.40;;
64907;SDS011;69061;52.236;5.188;2023-08-30T08:01:52;20.83;;;12.07;;
64907;SDS011;69061;52.236;5.188;2023-08-30T08:04:19;22.40;;;12.80;;
64907;SDS011;69061;52.236;5.188;2023-08-30T08:06:46;18.67;;;11.30;;
64907;SDS011;69061;52.236;5.188;2023-08-30T08:09:13;22.52;;;12.63;;
64907;SDS011;69061;52.236;5.188;2023-08-30T08:11:40;18.30;;;10.95;;
64907;SDS011;69061;52.236;5.188;2023-08-30T08:14:08;18.05;;;11.50;;
64907;SDS011;69061;52.236;5.188;2023-08-30T08:16:35;17.05;;;10.82;;
64907;SDS011;69061;52.236;5.188;2023-08-30T08:19:03;17.23;;;10.88;;
64907;SDS011;69061;52.236;5.188;2023-08-30T08:21:31;16.20;;;9.00;;
64907;SDS011;69061;52.236;5.188;2023-08-30T08:23:58;13.73;;;8.95;;
64907;SDS011;69061;52.236;5.188;2023-08-30T08:26:24;12.73;;;8.65;;
64907;SDS011;69061;52.236;5.188;2023-08-30T08:28:53;12.20;;;8.45;;
64907;SDS011;69061;52.236;5.188;2023-08-30T08:31:21;12.07;;;8.18;;
64907;SDS011;69061;52.236;5.188;2023-08-30T08:33:50;15.27;;;8.20;;
64907;SDS011;69061;52.236;5.188;2023-08-30T08:36:19;18.42;;;10.20;;
64907;SDS011;69061;52.236;5.188;2023-08-30T08:38:46;15.90;;;8.63;;
64907;SDS011;69061;52.236;5.188;2023-08-30T08:41:14;14.70;;;9.18;;
64907;SDS011;69061;52.236;5.188;2023-08-30T08:43:42;14.13;;;8.18;;
64907;SDS011;69061;52.236;5.188;2023-08-30T08:46:09;14.55;;;9.32;;
64907;SDS011;69061;52.236;5.188;2023-08-30T08:48:39;14.60;;;8.50;;
64907;SDS011;69061;52.236;5.188;2023-08-30T08:51:07;15.57;;;9.10;;
64907;SDS011;69061;52.236;5.188;2023-08-30T08:53:36;13.10;;;8.63;;
64907;SDS011;69061;52.236;5.188;2023-08-30T08:56:04;14.20;;;8.15;;
64907;SDS011;69061;52.236;5.188;2023-08-30T08:58:35;16.00;;;8.55;;
64907;SDS011;69061;52.236;5.188;2023-08-30T09:01:03;13.90;;;9.15;;
64907;SDS011;69061;52.236;5.188;2023-08-30T09:03:32;13.43;;;8.88;;
64907;SDS011;69061;52.236;5.188;2023-08-30T09:06:00;15.15;;;9.27;;
64907;SDS011;69061;52.236;5.188;2023-08-30T09:08:29;11.73;;;8.45;;
64907;SDS011;69061;52.236;5.188;2023-08-30T09:10:57;13.10;;;7.88;;
64907;SDS011;69061;52.236;5.188;2023-08-30T09:13:24;14.25;;;8.82;;
64907;SDS011;69061;52.236;5.188;2023-08-30T09:15:51;13.35;;;8.70;;
64907;SDS011;69061;52.236;5.188;2023-08-30T09:18:18;11.32;;;8.25;;
64907;SDS011;69061;52.236;5.188;2023-08-30T09:20:45;12.15;;;8.18;;
64907;SDS011;69061;52.236;5.188;2023-08-30T09:23:18;11.07;;;7.50;;
64907;SDS011;69061;52.236;5.188;2023-08-30T09:25:46;11.25;;;7.68;;
64907;SDS011;69061;52.236;5.188;2023-08-30T09:28:15;12.15;;;8.27;;
64907;SDS011;69061;52.236;5.188;2023-08-30T09:30:42;17.10;;;10.75;;
64907;SDS011;69061;52.236;5.188;2023-08-30T09:33:16;12.60;;;8.98;;
64907;SDS011;69061;52.236;5.188;2023-08-30T09:35:47;13.95;;;9.98;;
64907;SDS011;69061;52.236;5.188;2023-08-30T09:38:17;15.55;;;10.10;;
64907;SDS011;69061;52.236;5.188;2023-08-30T09:40:44;14.63;;;10.30;;
64907;SDS011;69061;52.236;5.188;2023-08-30T09:43:11;13.93;;;9.93;;
64907;SDS011;69061;52.236;5.188;2023-08-30T09:45:40;16.55;;;10.57;;
64907;SDS011;69061;52.236;5.188;2023-08-30T09:48:07;17.35;;;11.38;;
64907;SDS011;69061;52.236;5.188;2023-08-30T09:50:35;14.77;;;11.15;;
64907;SDS011;69061;52.236;5.188;2023-08-30T09:53:04;16.33;;;11.60;;
64907;SDS011;69061;52.236;5.188;2023-08-30T09:55:34;12.05;;;8.77;;
64907;SDS011;69061;52.236;5.188;2023-08-30T09:58:02;17.38;;;11.38;;
64907;SDS011;69061;52.236;5.188;2023-08-30T10:00:30;14.88;;;11.38;;
64907;SDS011;69061;52.236;5.188;2023-08-30T10:03:00;13.25;;;9.48;;
64907;SDS011;69061;52.236;5.188;2023-08-30T10:05:27;11.82;;;9.18;;
64907;SDS011;69061;52.236;5.188;2023-08-30T10:07:56;18.30;;;12.07;;
64907;SDS011;69061;52.236;5.188;2023-08-30T10:10:23;17.02;;;12.82;;
64907;SDS011;69061;52.236;5.188;2023-08-30T10:12:50;16.52;;;11.73;;
64907;SDS011;69061;52.236;5.188;2023-08-30T10:15:20;16.42;;;11.38;;
64907;SDS011;69061;52.236;5.188;2023-08-30T10:17:49;12.45;;;9.88;;
64907;SDS011;69061;52.236;5.188;2023-08-30T10:20:21;13.27;;;8.90;;
64907;SDS011;69061;52.236;5.188;2023-08-30T10:22:49;14.18;;;9.45;;
64907;SDS011;69061;52.236;5.188;2023-08-30T10:25:20;13.05;;;8.48;;
64907;SDS011;69061;52.236;5.188;2023-08-30T10:27:49;10.15;;;7.95;;
64907;SDS011;69061;52.236;5.188;2023-08-30T10:30:18;13.50;;;8.10;;
64907;SDS011;69061;52.236;5.188;2023-08-30T10:32:47;8.63;;;6.35;;
64907;SDS011;69061;52.236;5.188;2023-08-30T10:35:17;10.75;;;5.88;;
64907;SDS011;69061;52.236;5.188;2023-08-30T10:37:55;8.50;;;5.68;;
64907;SDS011;69061;52.236;5.188;2023-08-30T10:40:22;12.15;;;6.30;;
64907;SDS011;69061;52.236;5.188;2023-08-30T10:42:59;12.60;;;6.65;;
64907;SDS011;69061;52.236;5.188;2023-08-30T10:45:26;11.73;;;5.47;;
64907;SDS011;69061;52.236;5.188;2023-08-30T10:47:56;10.40;;;5.40;;
64907;SDS011;69061;52.236;5.188;2023-08-30T10:50:28;10.15;;;5.43;;
64907;SDS011;69061;52.236;5.188;2023-08-30T10:52:57;8.98;;;5.47;;
64907;SDS011;69061;52.236;5.188;2023-08-30T10:55:25;11.75;;;5.10;;
64907;SDS011;69061;52.236;5.188;2023-08-30T10:57:59;9.27;;;5.03;;
64907;SDS011;69061;52.236;5.188;2023-08-30T11:00:28;9.98;;;5.05;;
64907;SDS011;69061;52.236;5.188;2023-08-30T11:02:56;10.07;;;5.13;;
64907;SDS011;69061;52.236;5.188;2023-08-30T11:05:23;12.90;;;5.68;;
64907;SDS011;69061;52.236;5.188;2023-08-30T11:07:51;11.23;;;5.10;;
64907;SDS011;69061;52.236;5.188;2023-08-30T11:10:20;20.67;;;5.43;;
64907;SDS011;69061;52.236;5.188;2023-08-30T11:12:48;10.27;;;5.30;;
64907;SDS011;69061;52.236;5.188;2023-08-30T11:15:15;12.20;;;5.82;;
64907;SDS011;69061;52.236;5.188;2023-08-30T11:17:44;8.43;;;5.50;;
64907;SDS011;69061;52.236;5.188;2023-08-30T11:20:12;14.80;;;6.40;;
64907;SDS011;69061;52.236;5.188;2023-08-30T11:22:42;16.42;;;5.53;;
64907;SDS011;69061;52.236;5.188;2023-08-30T11:25:10;11.93;;;5.95;;
64907;SDS011;69061;52.236;5.188;2023-08-30T11:27:39;25.55;;;7.35;;
64907;SDS011;69061;52.236;5.188;2023-08-30T11:30:07;10.93;;;5.50;;
64907;SDS011;69061;52.236;5.188;2023-08-30T11:32:36;12.05;;;5.60;;
64907;SDS011;69061;52.236;5.188;2023-08-30T11:35:04;16.40;;;6.03;;
64907;SDS011;69061;52.236;5.188;2023-08-30T11:37:33;9.98;;;4.72;;
64907;SDS011;69061;52.236;5.188;2023-08-30T11:40:01;13.93;;;5.35;;
64907;SDS011;69061;52.236;5.188;2023-08-30T11:42:28;13.77;;;5.22;;
64907;SDS011;69061;52.236;5.188;2023-08-30T11:44:58;12.05;;;4.55;;
64907;SDS011;69061;52.236;5.188;2023-08-30T11:47:27;12.43;;;5.55;;
64907;SDS011;69061;52.236;5.188;2023-08-30T11:49:54;16.15;;;5.57;;
64907;SDS011;69061;52.236;5.188;2023-08-30T11:52:22;13.57;;;4.82;;
64907;SDS011;69061;52.236;5.188;2023-08-30T11:54:50;10.85;;;4.57;;
64907;SDS011;69061;52.236;5.188;2023-08-30T11:57:17;14.10;;;5.05;;
64907;SDS011;69061;52.236;5.188;2023-08-30T11:59:45;13.05;;;4.63;;
64907;SDS011;69061;52.236;5.188;2023-08-30T12:02:15;12.23;;;4.88;;
64907;SDS011;69061;52.236;5.188;2023-08-30T12:04:43;16.08;;;4.82;;
64907;SDS011;69061;52.236;5.188;2023-08-30T12:07:20;13.00;;;5.25;;
64907;SDS011;69061;52.236;5.188;2023-08-30T12:09:48;11.60;;;4.60;;
64907;SDS011;69061;52.236;5.188;2023-08-30T12:12:16;18.20;;;6.05;;
64907;SDS011;69061;52.236;5.188;2023-08-30T12:14:43;13.07;;;5.00;;
64907;SDS011;69061;52.236;5.188;2023-08-30T12:17:10;10.85;;;4.53;;
64907;SDS011;69061;52.236;5.188;2023-08-30T12:19:39;11.30;;;5.05;;
64907;SDS011;69061;52.236;5.188;2023-08-30T12:22:06;18.73;;;5.10;;
64907;SDS011;69061;52.236;5.188;2023-08-30T12:24:41;15.35;;;4.00;;
64907;SDS011;69061;52.236;5.188;2023-08-30T12:27:08;15.63;;;4.47;;
64907;SDS011;69061;52.236;5.188;2023-08-30T12:29:35;11.00;;;4.60;;
64907;SDS011;69061;52.236;5.188;2023-08-30T12:32:02;14.13;;;4.80;;
64907;SDS011;69061;52.236;5.188;2023-08-30T12:34:30;10.82;;;4.38;;
64907;SDS011;69061;52.236;5.188;2023-08-30T12:36:59;16.35;;;5.00;;
64907;SDS011;69061;52.236;5.188;2023-08-30T12:39:27;18.83;;;5.00;;
64907;SDS011;69061;52.236;5.188;2023-08-30T12:41:54;15.45;;;4.78;;
64907;SDS011;69061;52.236;5.188;2023-08-30T12:44:20;14.45;;;4.97;;
64907;SDS011;69061;52.236;5.188;2023-08-30T12:46:48;14.05;;;4.32;;
64907;SDS011;69061;52.236;5.188;2023-08-30T12:49:14;6.82;;;4.15;;
64907;SDS011;69061;52.236;5.188;2023-08-30T12:51:41;12.95;;;4.43;;
64907;SDS011;69061;52.236;5.188;2023-08-30T12:54:10;9.23;;;4.18;;
64907;SDS011;69061;52.236;5.188;2023-08-30T12:56:36;15.07;;;4.75;;
64907;SDS011;69061;52.236;5.188;2023-08-30T12:59:03;12.02;;;4.30;;
64907;SDS011;69061;52.236;5.188;2023-08-30T13:01:30;14.75;;;4.93;;
64907;SDS011;69061;52.236;5.188;2023-08-30T13:03:57;12.63;;;4.38;;
64907;SDS011;69061;52.236;5.188;2023-08-30T13:06:25;10.38;;;4.13;;
64907;SDS011;69061;52.236;5.188;2023-08-30T13:08:52;11.95;;;4.30;;
64907;SDS011;69061;52.236;5.188;2023-08-30T13:11:20;10.80;;;4.70;;
64907;SDS011;69061;52.236;5.188;2023-08-30T13:13:47;11.48;;;4.15;;
64907;SDS011;69061;52.236;5.188;2023-08-30T13:16:14;7.82;;;4.00;;
64907;SDS011;69061;52.236;5.188;2023-08-30T13:18:41;9.25;;;4.72;;
64907;SDS011;69061;52.236;5.188;2023-08-30T13:21:08;13.68;;;4.25;;
64907;SDS011;69061;52.236;5.188;2023-08-30T13:23:35;6.95;;;3.58;;
64907;SDS011;69061;52.236;5.188;2023-08-30T13:26:01;11.88;;;3.92;;
64907;SDS011;69061;52.236;5.188;2023-08-30T13:28:30;13.52;;;4.63;;
64907;SDS011;69061;52.236;5.188;2023-08-30T13:30:57;10.88;;;4.05;;
64907;SDS011;69061;52.236;5.188;2023-08-30T13:33:24;11.18;;;4.28;;
64907;SDS011;69061;52.236;5.188;2023-08-30T13:35:51;10.98;;;3.70;;
64907;SDS011;69061;52.236;5.188;2023-08-30T13:38:19;8.32;;;3.92;;
64907;SDS011;69061;52.236;5.188;2023-08-30T13:40:46;9.20;;;4.15;;
64907;SDS011;69061;52.236;5.188;2023-08-30T13:43:13;12.00;;;4.57;;
64907;SDS011;69061;52.236;5.188;2023-08-30T13:45:41;14.45;;;4.45;;
64907;SDS011;69061;52.236;5.188;2023-08-30T13:48:11;9.35;;;3.95;;
64907;SDS011;69061;52.236;5.188;2023-08-30T13:50:40;11.30;;;4.38;;
64907;SDS011;69061;52.236;5.188;2023-08-30T13:53:08;10.57;;;4.43;;
64907;SDS011;69061;52.236;5.188;2023-08-30T13:55:35;13.95;;;4.82;;
64907;SDS011;69061;52.236;5.188;2023-08-30T13:58:02;11.80;;;4.65;;
64907;SDS011;69061;52.236;5.188;2023-08-30T14:00:29;9.15;;;3.80;;
64907;SDS011;69061;52.236;5.188;2023-08-30T14:02:57;9.40;;;4.28;;
64907;SDS011;69061;52.236;5.188;2023-08-30T14:05:24;16.92;;;4.78;;
64907;SDS011;69061;52.236;5.188;2023-08-30T14:07:51;12.90;;;4.25;;
64907;SDS011;69061;52.236;5.188;2023-08-30T14:10:18;6.72;;;3.80;;
64907;SDS011;69061;52.236;5.188;2023-08-30T14:12:45;9.13;;;3.55;;
64907;SDS011;69061;52.236;5.188;2023-08-30T14:15:12;8.57;;;3.75;;
64907;SDS011;69061;52.236;5.188;2023-08-30T14:17:39;11.45;;;4.20;;
64907;SDS011;69061;52.236;5.188;2023-08-30T14:20:09;9.25;;;4.50;;
64907;SDS011;69061;52.236;5.188;2023-08-30T14:22:36;16.35;;;4.57;;
64907;SDS011;69061;52.236;5.188;2023-08-30T14:25:03;7.05;;;3.80;;
64907;SDS011;69061;52.236;5.188;2023-08-30T14:27:31;12.27;;;4.50;;
64907;SDS011;69061;52.236;5.188;2023-08-30T14:29:57;10.60;;;3.45;;
64907;SDS011;69061;52.236;5.188;2023-08-30T14:32:25;10.50;;;4.18;;
64907;SDS011;69061;52.236;5.188;2023-08-30T14:34:52;6.15;;;3.22;;